sensor_id;sensor_type;location;lat;lon;timestamp;P1;durP1;ratioP1;P2;durP2;ratioP2
14247;SDS011;7208;49.826;6.004;2023-12-28T00:00:05;3.03;;;1.30;;
14247;SDS011;7208;49.826;6.004;2023-12-28T00:02:32;1.30;;;1.20;;
14247;SDS011;7208;49.826;6.004;2023-12-28T00:04:58;1.40;;;0.90;;
14247;SDS011;7208;49.826;6.004;2023-12-28T00:07:23;2.17;;;0.80;;
14247;SDS011;7208;49.826;6.004;2023-12-28T00:09:49;1.50;;;1.40;;
14247;SDS011;7208;49.826;6.004;2023-12-28T00:12:15;2.80;;;0.93;;
14247;SDS011;7208;49.826;6.004;2023-12-28T00:14:40;1.07;;;0.80;;
14247;SDS011;7208;49.826;6.004;2023-12-28T00:17:06;1.17;;;1.00;;
14247;SDS011;7208;49.826;6.004;2023-12-28T00:19:32;0.87;;;0.87;;
14247;SDS011;7208;49.826;6.004;2023-12-28T00:21:57;1.23;;;1.13;;
14247;SDS011;7208;49.826;6.004;2023-12-28T00:24:23;1.43;;;1.00;;
14247;SDS011;7208;49.826;6.004;2023-12-28T00:26:49;1.23;;;1.23;;
14247;SDS011;7208;49.826;6.004;2023-12-28T00:29:14;1.23;;;1.13;;
14247;SDS011;7208;49.826;6.004;2023-12-28T00:31:40;1.40;;;1.20;;
14247;SDS011;7208;49.826;6.004;2023-12-28T00:34:06;0.97;;;0.90;;
14247;SDS011;7208;49.826;6.004;2023-12-28T00:36:31;1.20;;;1.10;;
14247;SDS011;7208;49.826;6.004;2023-12-28T00:38:57;1.37;;;1.27;;
14247;SDS011;7208;49.826;6.004;2023-12-28T00:41:23;1.23;;;1.10;;
14247;SDS011;7208;49.826;6.004;2023-12-28T00:43:48;2.20;;;1.40;;
14247;SDS011;7208;49.826;6.004;2023-12-28T00:46:14;1.17;;;0.87;;
14247;SDS011;7208;49.826;6.004;2023-12-28T00:48:40;1.70;;;1.30;;
14247;SDS011;7208;49.826;6.004;2023-12-28T00:51:05;1.73;;;1.30;;
14247;SDS011;7208;49.826;6.004;2023-12-28T00:53:31;1.20;;;1.10;;
14247;SDS011;7208;49.826;6.004;2023-12-28T00:55:57;1.30;;;1.20;;
14247;SDS011;7208;49.826;6.004;2023-12-28T00:58:22;0.90;;;0.90;;
14247;SDS011;7208;49.826;6.004;2023-12-28T01:00:48;1.80;;;1.23;;
14247;SDS011;7208;49.826;6.004;2023-12-28T01:03:14;1.63;;;1.30;;
14247;SDS011;7208;49.826;6.004;2023-12-28T01:05:39;2.20;;;1.27;;
14247;SDS011;7208;49.826;6.004;2023-12-28T01:08:05;2.00;;;1.20;;
14247;SDS011;7208;49.826;6.004;2023-12-28T01:10:31;1.20;;;1.13;;
14247;SDS011;7208;49.826;6.004;2023-12-28T01:12:56;3.57;;;1.23;;
14247;SDS011;7208;49.826;6.004;2023-12-28T01:15:22;1.20;;;1.10;;
14247;SDS011;7208;49.826;6.004;2023-12-28T01:17:48;1.07;;;0.97;;
14247;SDS011;7208;49.826;6.004;2023-12-28T01:20:14;1.83;;;1.70;;
14247;SDS011;7208;49.826;6.004;2023-12-28T01:22:39;1.50;;;1.40;;
14247;SDS011;7208;49.826;6.004;2023-12-28T01:25:05;1.37;;;1.20;;
14247;SDS011;7208;49.826;6.004;2023-12-28T01:27:31;2.53;;;1.20;;
14247;SDS011;7208;49.826;6.004;2023-12-28T01:29:57;1.37;;;1.20;;
14247;SDS011;7208;49.826;6.004;2023-12-28T01:32:22;1.60;;;1.30;;
14247;SDS011;7208;49.826;6.004;2023-12-28T01:34:48;1.70;;;1.60;;
14247;SDS011;7208;49.826;6.004;2023-12-28T01:37:13;1.50;;;1.40;;
14247;SDS011;7208;49.826;6.004;2023-12-28T01:39:39;1.57;;;1.07;;
14247;SDS011;7208;49.826;6.004;2023-12-28T01:42:05;1.50;;;1.40;;
14247;SDS011;7208;49.826;6.004;2023-12-28T01:44:30;1.30;;;1.20;;
14247;SDS011;7208;49.826;6.004;2023-12-28T01:46:57;1.43;;;1.33;;
14247;SDS011;7208;49.826;6.004;2023-12-28T01:49:24;1.73;;;1.10;;
14247;SDS011;7208;49.826;6.004;2023-12-28T01:51:50;2.07;;;1.50;;
14247;SDS011;7208;49.826;6.004;2023-12-28T01:54:16;1.53;;;1.43;;
14247;SDS011;7208;49.826;6.004;2023-12-28T01:56:43;0.90;;;0.90;;
14247;SDS011;7208;49.826;6.004;2023-12-28T01:59:09;2.07;;;1.60;;
14247;SDS011;7208;49.826;6.004;2023-12-28T02:01:36;1.60;;;1.50;;
14247;SDS011;7208;49.826;6.004;2023-12-28T02:04:01;1.80;;;1.70;;
14247;SDS011;7208;49.826;6.004;2023-12-28T02:06:27;1.90;;;1.50;;
14247;SDS011;7208;49.826;6.004;2023-12-28T02:08:53;1.20;;;1.10;;
14247;SDS011;7208;49.826;6.004;2023-12-28T02:11:19;1.77;;;1.63;;
14247;SDS011;7208;49.826;6.004;2023-12-28T02:13:45;2.77;;;1.50;;
14247;SDS011;7208;49.826;6.004;2023-12-28T02:16:32;2.13;;;1.87;;
14247;SDS011;7208;49.826;6.004;2023-12-28T02:19:00;2.47;;;1.40;;
14247;SDS011;7208;49.826;6.004;2023-12-28T02:21:39;1.30;;;1.20;;
14247;SDS011;7208;49.826;6.004;2023-12-28T02:24:06;5.37;;;1.67;;
14247;SDS011;7208;49.826;6.004;2023-12-28T02:26:31;1.67;;;1.50;;
14247;SDS011;7208;49.826;6.004;2023-12-28T02:28:57;2.13;;;1.43;;
14247;SDS011;7208;49.826;6.004;2023-12-28T02:31:28;1.87;;;1.60;;
14247;SDS011;7208;49.826;6.004;2023-12-28T02:34:04;2.60;;;1.60;;
14247;SDS011;7208;49.826;6.004;2023-12-28T02:36:35;1.80;;;1.67;;
14247;SDS011;7208;49.826;6.004;2023-12-28T02:39:03;2.07;;;1.43;;
14247;SDS011;7208;49.826;6.004;2023-12-28T02:41:30;1.60;;;1.30;;
14247;SDS011;7208;49.826;6.004;2023-12-28T02:43:57;1.50;;;1.40;;
14247;SDS011;7208;49.826;6.004;2023-12-28T02:46:23;1.90;;;1.70;;
14247;SDS011;7208;49.826;6.004;2023-12-28T02:48:49;2.43;;;2.20;;
14247;SDS011;7208;49.826;6.004;2023-12-28T02:51:15;1.93;;;1.73;;
14247;SDS011;7208;49.826;6.004;2023-12-28T02:53:41;2.17;;;1.63;;
14247;SDS011;7208;49.826;6.004;2023-12-28T02:56:07;3.77;;;1.23;;
14247;SDS011;7208;49.826;6.004;2023-12-28T02:58:33;2.23;;;1.57;;
14247;SDS011;7208;49.826;6.004;2023-12-28T03:00:58;1.13;;;1.03;;
14247;SDS011;7208;49.826;6.004;2023-12-28T03:03:24;3.13;;;1.40;;
14247;SDS011;7208;49.826;6.004;2023-12-28T03:05:50;1.97;;;1.17;;
14247;SDS011;7208;49.826;6.004;2023-12-28T03:08:15;2.13;;;1.50;;
14247;SDS011;7208;49.826;6.004;2023-12-28T03:10:42;1.60;;;1.50;;
14247;SDS011;7208;49.826;6.004;2023-12-28T03:13:07;2.10;;;1.90;;
14247;SDS011;7208;49.826;6.004;2023-12-28T03:15:33;1.97;;;1.77;;
14247;SDS011;7208;49.826;6.004;2023-12-28T03:17:59;1.63;;;1.50;;
14247;SDS011;7208;49.826;6.004;2023-12-28T03:20:25;1.70;;;1.53;;
14247;SDS011;7208;49.826;6.004;2023-12-28T03:22:50;1.43;;;1.30;;
14247;SDS011;7208;49.826;6.004;2023-12-28T03:25:16;3.83;;;1.60;;
14247;SDS011;7208;49.826;6.004;2023-12-28T03:27:41;1.40;;;1.30;;
14247;SDS011;7208;49.826;6.004;2023-12-28T03:30:07;1.73;;;1.63;;
14247;SDS011;7208;49.826;6.004;2023-12-28T03:32:33;1.60;;;1.50;;
14247;SDS011;7208;49.826;6.004;2023-12-28T03:34:59;2.87;;;1.80;;
14247;SDS011;7208;49.826;6.004;2023-12-28T03:37:25;0.97;;;0.97;;
14247;SDS011;7208;49.826;6.004;2023-12-28T03:39:50;1.87;;;1.60;;
14247;SDS011;7208;49.826;6.004;2023-12-28T03:42:16;1.70;;;1.60;;
14247;SDS011;7208;49.826;6.004;2023-12-28T03:44:42;1.90;;;1.57;;
14247;SDS011;7208;49.826;6.004;2023-12-28T03:47:07;3.23;;;2.03;;
14247;SDS011;7208;49.826;6.004;2023-12-28T03:49:33;2.13;;;1.70;;
14247;SDS011;7208;49.826;6.004;2023-12-28T03:51:58;1.67;;;1.57;;
14247;SDS011;7208;49.826;6.004;2023-12-28T03:54:24;1.93;;;1.77;;
14247;SDS011;7208;49.826;6.004;2023-12-28T03:56:50;1.90;;;1.80;;
14247;SDS011;7208;49.826;6.004;2023-12-28T03:59:15;1.73;;;1.63;;
14247;SDS011;7208;49.826;6.004;2023-12-28T04:01:41;1.77;;;1.53;;
14247;SDS011;7208;49.826;6.004;2023-12-28T04:04:07;3.37;;;2.00;;
14247;SDS011;7208;49.826;6.004;2023-12-28T04:06:33;3.80;;;1.90;;
14247;SDS011;7208;49.826;6.004;2023-12-28T04:08:59;1.93;;;1.73;;
14247;SDS011;7208;49.826;6.004;2023-12-28T04:11:25;2.80;;;1.77;;
14247;SDS011;7208;49.826;6.004;2023-12-28T04:13:51;1.50;;;1.40;;
14247;SDS011;7208;49.826;6.004;2023-12-28T04:16:17;1.97;;;1.60;;
14247;SDS011;7208;49.826;6.004;2023-12-28T04:18:43;3.00;;;1.60;;
14247;SDS011;7208;49.826;6.004;2023-12-28T04:21:10;2.47;;;2.27;;
14247;SDS011;7208;49.826;6.004;2023-12-28T04:23:37;2.07;;;1.63;;
14247;SDS011;7208;49.826;6.004;2023-12-28T04:26:04;4.00;;;1.30;;
14247;SDS011;7208;49.826;6.004;2023-12-28T04:28:30;2.17;;;1.87;;
14247;SDS011;7208;49.826;6.004;2023-12-28T04:30:56;1.80;;;1.70;;
14247;SDS011;7208;49.826;6.004;2023-12-28T04:33:22;2.63;;;2.20;;
14247;SDS011;7208;49.826;6.004;2023-12-28T04:35:48;2.75;;;2.08;;
14247;SDS011;7208;49.826;6.004;2023-12-28T04:38:14;4.27;;;2.00;;
14247;SDS011;7208;49.826;6.004;2023-12-28T04:40:40;2.57;;;1.60;;
14247;SDS011;7208;49.826;6.004;2023-12-28T04:43:06;1.93;;;1.77;;
14247;SDS011;7208;49.826;6.004;2023-12-28T04:45:32;2.07;;;1.87;;
14247;SDS011;7208;49.826;6.004;2023-12-28T04:47:57;1.57;;;1.47;;
14247;SDS011;7208;49.826;6.004;2023-12-28T04:50:24;3.57;;;1.50;;
14247;SDS011;7208;49.826;6.004;2023-12-28T04:52:50;2.17;;;1.70;;
14247;SDS011;7208;49.826;6.004;2023-12-28T04:55:16;4.13;;;2.00;;
14247;SDS011;7208;49.826;6.004;2023-12-28T04:57:41;2.70;;;1.43;;
14247;SDS011;7208;49.826;6.004;2023-12-28T05:00:07;1.97;;;1.50;;
14247;SDS011;7208;49.826;6.004;2023-12-28T05:02:33;1.77;;;1.23;;
14247;SDS011;7208;49.826;6.004;2023-12-28T05:04:59;1.77;;;1.63;;
14247;SDS011;7208;49.826;6.004;2023-12-28T05:07:25;1.77;;;1.67;;
14247;SDS011;7208;49.826;6.004;2023-12-28T05:09:51;1.73;;;1.23;;
14247;SDS011;7208;49.826;6.004;2023-12-28T05:12:17;2.33;;;1.70;;
14247;SDS011;7208;49.826;6.004;2023-12-28T05:14:42;2.10;;;1.80;;
14247;SDS011;7208;49.826;6.004;2023-12-28T05:17:08;1.50;;;1.40;;
14247;SDS011;7208;49.826;6.004;2023-12-28T05:19:34;3.30;;;1.90;;
14247;SDS011;7208;49.826;6.004;2023-12-28T05:21:59;2.00;;;1.40;;
14247;SDS011;7208;49.826;6.004;2023-12-28T05:24:28;1.77;;;1.33;;
14247;SDS011;7208;49.826;6.004;2023-12-28T05:26:54;1.67;;;1.53;;
14247;SDS011;7208;49.826;6.004;2023-12-28T05:29:20;1.97;;;1.37;;
14247;SDS011;7208;49.826;6.004;2023-12-28T05:31:45;2.67;;;1.67;;
14247;SDS011;7208;49.826;6.004;2023-12-28T05:34:11;2.30;;;2.10;;
14247;SDS011;7208;49.826;6.004;2023-12-28T05:36:37;2.30;;;2.10;;
14247;SDS011;7208;49.826;6.004;2023-12-28T05:39:03;3.47;;;1.67;;
14247;SDS011;7208;49.826;6.004;2023-12-28T05:41:29;4.60;;;2.07;;
14247;SDS011;7208;49.826;6.004;2023-12-28T05:43:54;2.40;;;1.50;;
14247;SDS011;7208;49.826;6.004;2023-12-28T05:46:20;4.60;;;1.50;;
14247;SDS011;7208;49.826;6.004;2023-12-28T05:48:46;1.60;;;1.50;;
14247;SDS011;7208;49.826;6.004;2023-12-28T05:51:12;1.20;;;1.10;;
14247;SDS011;7208;49.826;6.004;2023-12-28T05:53:38;2.10;;;1.47;;
14247;SDS011;7208;49.826;6.004;2023-12-28T05:56:04;5.43;;;1.70;;
14247;SDS011;7208;49.826;6.004;2023-12-28T05:58:30;2.23;;;1.40;;
14247;SDS011;7208;49.826;6.004;2023-12-28T06:00:55;2.30;;;1.70;;
14247;SDS011;7208;49.826;6.004;2023-12-28T06:03:21;1.70;;;1.60;;
14247;SDS011;7208;49.826;6.004;2023-12-28T06:05:47;3.13;;;1.60;;
14247;SDS011;7208;49.826;6.004;2023-12-28T06:08:12;2.37;;;1.30;;
14247;SDS011;7208;49.826;6.004;2023-12-28T06:10:38;2.83;;;1.50;;
14247;SDS011;7208;49.826;6.004;2023-12-28T06:13:04;2.17;;;1.70;;
14247;SDS011;7208;49.826;6.004;2023-12-28T06:15:29;1.83;;;1.27;;
14247;SDS011;7208;49.826;6.004;2023-12-28T06:17:55;1.20;;;1.10;;
14247;SDS011;7208;49.826;6.004;2023-12-28T06:20:21;2.97;;;1.17;;
14247;SDS011;7208;49.826;6.004;2023-12-28T06:22:46;1.10;;;1.00;;
14247;SDS011;7208;49.826;6.004;2023-12-28T06:25:14;5.23;;;1.30;;
14247;SDS011;7208;49.826;6.004;2023-12-28T06:27:39;3.03;;;1.40;;
14247;SDS011;7208;49.826;6.004;2023-12-28T06:30:05;2.47;;;1.50;;
14247;SDS011;7208;49.826;6.004;2023-12-28T06:32:31;2.77;;;1.40;;
14247;SDS011;7208;49.826;6.004;2023-12-28T06:34:57;1.30;;;0.90;;
14247;SDS011;7208;49.826;6.004;2023-12-28T06:37:23;1.20;;;1.10;;
14247;SDS011;7208;49.826;6.004;2023-12-28T06:39:48;3.23;;;1.13;;
14247;SDS011;7208;49.826;6.004;2023-12-28T06:42:14;1.20;;;1.10;;
14247;SDS011;7208;49.826;6.004;2023-12-28T06:44:40;1.57;;;0.90;;
14247;SDS011;7208;49.826;6.004;2023-12-28T06:47:05;2.03;;;1.30;;
14247;SDS011;7208;49.826;6.004;2023-12-28T06:49:31;1.20;;;1.10;;
14247;SDS011;7208;49.826;6.004;2023-12-28T06:51:57;1.53;;;1.10;;
14247;SDS011;7208;49.826;6.004;2023-12-28T06:54:22;1.57;;;1.03;;
14247;SDS011;7208;49.826;6.004;2023-12-28T06:56:49;2.30;;;1.10;;
14247;SDS011;7208;49.826;6.004;2023-12-28T06:59:16;2.70;;;1.33;;
14247;SDS011;7208;49.826;6.004;2023-12-28T07:01:42;2.87;;;0.97;;
14247;SDS011;7208;49.826;6.004;2023-12-28T07:04:09;2.53;;;1.10;;
14247;SDS011;7208;49.826;6.004;2023-12-28T07:06:35;1.87;;;1.30;;
14247;SDS011;7208;49.826;6.004;2023-12-28T07:09:00;3.17;;;1.40;;
14247;SDS011;7208;49.826;6.004;2023-12-28T07:11:27;1.70;;;1.30;;
14247;SDS011;7208;49.826;6.004;2023-12-28T07:13:52;2.77;;;1.23;;
14247;SDS011;7208;49.826;6.004;2023-12-28T07:16:18;1.67;;;1.27;;
14247;SDS011;7208;49.826;6.004;2023-12-28T07:18:44;1.70;;;1.07;;
14247;SDS011;7208;49.826;6.004;2023-12-28T07:21:10;1.60;;;1.50;;
14247;SDS011;7208;49.826;6.004;2023-12-28T07:23:36;1.03;;;0.93;;
14247;SDS011;7208;49.826;6.004;2023-12-28T07:26:02;5.60;;;1.67;;
14247;SDS011;7208;49.826;6.004;2023-12-28T07:28:28;1.10;;;1.00;;
14247;SDS011;7208;49.826;6.004;2023-12-28T07:30:54;2.73;;;1.10;;
14247;SDS011;7208;49.826;6.004;2023-12-28T07:33:20;3.13;;;1.30;;
14247;SDS011;7208;49.826;6.004;2023-12-28T07:35:46;4.33;;;1.77;;
14247;SDS011;7208;49.826;6.004;2023-12-28T07:38:11;0.90;;;0.90;;
14247;SDS011;7208;49.826;6.004;2023-12-28T07:40:37;2.40;;;1.00;;
14247;SDS011;7208;49.826;6.004;2023-12-28T07:43:03;3.40;;;1.30;;
14247;SDS011;7208;49.826;6.004;2023-12-28T07:45:29;1.20;;;1.00;;
14247;SDS011;7208;49.826;6.004;2023-12-28T07:47:55;1.63;;;1.40;;
14247;SDS011;7208;49.826;6.004;2023-12-28T07:50:21;2.63;;;0.90;;
14247;SDS011;7208;49.826;6.004;2023-12-28T07:52:47;1.17;;;1.07;;
14247;SDS011;7208;49.826;6.004;2023-12-28T07:55:14;3.97;;;1.00;;
14247;SDS011;7208;49.826;6.004;2023-12-28T07:57:40;4.47;;;1.33;;
14247;SDS011;7208;49.826;6.004;2023-12-28T08:00:06;3.03;;;1.20;;
14247;SDS011;7208;49.826;6.004;2023-12-28T08:02:32;0.90;;;0.90;;
14247;SDS011;7208;49.826;6.004;2023-12-28T08:04:58;1.87;;;1.63;;
14247;SDS011;7208;49.826;6.004;2023-12-28T08:07:24;3.43;;;1.00;;
14247;SDS011;7208;49.826;6.004;2023-12-28T08:09:49;2.00;;;1.07;;
14247;SDS011;7208;49.826;6.004;2023-12-28T08:12:15;1.33;;;1.00;;
14247;SDS011;7208;49.826;6.004;2023-12-28T08:14:42;2.73;;;1.03;;
14247;SDS011;7208;49.826;6.004;2023-12-28T08:17:08;2.87;;;1.10;;
14247;SDS011;7208;49.826;6.004;2023-12-28T08:19:34;1.40;;;1.20;;
14247;SDS011;7208;49.826;6.004;2023-12-28T08:22:00;1.07;;;0.97;;
14247;SDS011;7208;49.826;6.004;2023-12-28T08:24:26;1.47;;;1.13;;
14247;SDS011;7208;49.826;6.004;2023-12-28T08:26:51;1.77;;;1.00;;
14247;SDS011;7208;49.826;6.004;2023-12-28T08:29:18;1.37;;;1.20;;
14247;SDS011;7208;49.826;6.004;2023-12-28T08:31:43;1.90;;;1.10;;
14247;SDS011;7208;49.826;6.004;2023-12-28T08:34:09;1.93;;;1.17;;
14247;SDS011;7208;49.826;6.004;2023-12-28T08:36:35;2.63;;;1.40;;
14247;SDS011;7208;49.826;6.004;2023-12-28T08:39:00;0.77;;;0.77;;
14247;SDS011;7208;49.826;6.004;2023-12-28T08:41:26;1.40;;;1.30;;
14247;SDS011;7208;49.826;6.004;2023-12-28T08:43:52;1.20;;;1.10;;
14247;SDS011;7208;49.826;6.004;2023-12-28T08:46:21;1.10;;;0.83;;
14247;SDS011;7208;49.826;6.004;2023-12-28T08:48:49;1.50;;;0.93;;
14247;SDS011;7208;49.826;6.004;2023-12-28T08:51:15;1.17;;;1.00;;
14247;SDS011;7208;49.826;6.004;2023-12-28T08:53:41;2.13;;;0.70;;
14247;SDS011;7208;49.826;6.004;2023-12-28T08:56:20;0.90;;;0.90;;
14247;SDS011;7208;49.826;6.004;2023-12-28T08:58:46;1.07;;;0.80;;
14247;SDS011;7208;49.826;6.004;2023-12-28T09:01:16;1.73;;;0.80;;
14247;SDS011;7208;49.826;6.004;2023-12-28T09:03:42;0.97;;;0.73;;
14247;SDS011;7208;49.826;6.004;2023-12-28T09:06:08;2.33;;;0.90;;
14247;SDS011;7208;49.826;6.004;2023-12-28T09:08:34;0.90;;;0.80;;
14247;SDS011;7208;49.826;6.004;2023-12-28T09:11:00;1.20;;;0.90;;
14247;SDS011;7208;49.826;6.004;2023-12-28T09:13:26;2.57;;;0.97;;
14247;SDS011;7208;49.826;6.004;2023-12-28T09:15:52;2.80;;;1.20;;
14247;SDS011;7208;49.826;6.004;2023-12-28T09:18:17;1.67;;;0.80;;
14247;SDS011;7208;49.826;6.004;2023-12-28T09:20:43;1.07;;;0.93;;
14247;SDS011;7208;49.826;6.004;2023-12-28T09:23:09;2.87;;;0.83;;
14247;SDS011;7208;49.826;6.004;2023-12-28T09:25:35;2.20;;;0.87;;
14247;SDS011;7208;49.826;6.004;2023-12-28T09:28:04;1.47;;;1.07;;
14247;SDS011;7208;49.826;6.004;2023-12-28T09:30:30;0.93;;;0.60;;
14247;SDS011;7208;49.826;6.004;2023-12-28T09:32:56;2.53;;;0.77;;
14247;SDS011;7208;49.826;6.004;2023-12-28T09:35:22;4.13;;;1.17;;
14247;SDS011;7208;49.826;6.004;2023-12-28T09:37:47;2.40;;;1.07;;
14247;SDS011;7208;49.826;6.004;2023-12-28T09:40:14;2.30;;;0.90;;
14247;SDS011;7208;49.826;6.004;2023-12-28T09:42:43;4.50;;;0.70;;
14247;SDS011;7208;49.826;6.004;2023-12-28T09:45:17;1.47;;;0.70;;
14247;SDS011;7208;49.826;6.004;2023-12-28T09:47:43;1.17;;;0.60;;
14247;SDS011;7208;49.826;6.004;2023-12-28T09:50:09;1.57;;;0.63;;
14247;SDS011;7208;49.826;6.004;2023-12-28T09:52:37;1.90;;;0.70;;
14247;SDS011;7208;49.826;6.004;2023-12-28T09:55:03;1.97;;;1.10;;
14247;SDS011;7208;49.826;6.004;2023-12-28T09:57:29;2.80;;;0.73;;
14247;SDS011;7208;49.826;6.004;2023-12-28T09:59:55;3.37;;;1.50;;
14247;SDS011;7208;49.826;6.004;2023-12-28T10:02:22;1.93;;;0.77;;
14247;SDS011;7208;49.826;6.004;2023-12-28T10:04:48;3.47;;;1.10;;
14247;SDS011;7208;49.826;6.004;2023-12-28T10:07:14;2.17;;;1.33;;
14247;SDS011;7208;49.826;6.004;2023-12-28T10:09:39;2.10;;;1.60;;
14247;SDS011;7208;49.826;6.004;2023-12-28T10:12:05;1.60;;;1.03;;
14247;SDS011;7208;49.826;6.004;2023-12-28T10:14:32;2.77;;;0.60;;
14247;SDS011;7208;49.826;6.004;2023-12-28T10:16:59;0.67;;;0.50;;
14247;SDS011;7208;49.826;6.004;2023-12-28T10:19:24;2.10;;;1.07;;
14247;SDS011;7208;49.826;6.004;2023-12-28T10:21:50;0.57;;;0.50;;
14247;SDS011;7208;49.826;6.004;2023-12-28T10:24:16;0.97;;;0.97;;
14247;SDS011;7208;49.826;6.004;2023-12-28T10:26:42;3.13;;;0.80;;
14247;SDS011;7208;49.826;6.004;2023-12-28T10:29:07;1.83;;;0.50;;
14247;SDS011;7208;49.826;6.004;2023-12-28T10:31:33;2.10;;;0.87;;
14247;SDS011;7208;49.826;6.004;2023-12-28T10:33:59;6.40;;;1.97;;
14247;SDS011;7208;49.826;6.004;2023-12-28T10:36:27;4.83;;;1.07;;
14247;SDS011;7208;49.826;6.004;2023-12-28T10:38:53;1.97;;;0.67;;
14247;SDS011;7208;49.826;6.004;2023-12-28T10:41:22;3.17;;;0.83;;
14247;SDS011;7208;49.826;6.004;2023-12-28T10:46:30;1.00;;;0.90;;
14247;SDS011;7208;49.826;6.004;2023-12-28T10:48:58;3.33;;;0.87;;
14247;SDS011;7208;49.826;6.004;2023-12-28T10:51:30;1.50;;;0.60;;
14247;SDS011;7208;49.826;6.004;2023-12-28T10:54:22;0.80;;;0.40;;
14247;SDS011;7208;49.826;6.004;2023-12-28T11:02:38;7.60;;;0.77;;
14247;SDS011;7208;49.826;6.004;2023-12-28T11:05:12;2.30;;;1.00;;
14247;SDS011;7208;49.826;6.004;2023-12-28T11:07:39;1.40;;;0.70;;
14247;SDS011;7208;49.826;6.004;2023-12-28T11:10:06;3.80;;;0.90;;
14247;SDS011;7208;49.826;6.004;2023-12-28T11:12:35;1.87;;;1.00;;
14247;SDS011;7208;49.826;6.004;2023-12-28T11:15:02;1.90;;;0.90;;
14247;SDS011;7208;49.826;6.004;2023-12-28T11:17:30;3.03;;;1.27;;
14247;SDS011;7208;49.826;6.004;2023-12-28T11:19:56;2.57;;;0.90;;
14247;SDS011;7208;49.826;6.004;2023-12-28T11:22:23;2.50;;;0.70;;
14247;SDS011;7208;49.826;6.004;2023-12-28T11:24:53;2.83;;;1.00;;
14247;SDS011;7208;49.826;6.004;2023-12-28T11:27:19;0.87;;;0.67;;
14247;SDS011;7208;49.826;6.004;2023-12-28T11:29:47;1.43;;;0.57;;
14247;SDS011;7208;49.826;6.004;2023-12-28T11:32:13;1.07;;;0.70;;
14247;SDS011;7208;49.826;6.004;2023-12-28T11:34:39;1.07;;;0.63;;
14247;SDS011;7208;49.826;6.004;2023-12-28T11:37:07;2.17;;;0.80;;
14247;SDS011;7208;49.826;6.004;2023-12-28T11:39:37;1.57;;;0.70;;
14247;SDS011;7208;49.826;6.004;2023-12-28T11:42:08;4.87;;;0.80;;
14247;SDS011;7208;49.826;6.004;2023-12-28T11:44:38;4.53;;;1.53;;
14247;SDS011;7208;49.826;6.004;2023-12-28T11:47:14;2.63;;;0.67;;
14247;SDS011;7208;49.826;6.004;2023-12-28T11:49:41;2.20;;;0.60;;
14247;SDS011;7208;49.826;6.004;2023-12-28T11:52:07;1.10;;;0.60;;
14247;SDS011;7208;49.826;6.004;2023-12-28T11:54:34;2.17;;;0.70;;
14247;SDS011;7208;49.826;6.004;2023-12-28T11:57:00;1.17;;;1.00;;
14247;SDS011;7208;49.826;6.004;2023-12-28T11:59:26;3.40;;;0.70;;
14247;SDS011;7208;49.826;6.004;2023-12-28T12:01:52;2.43;;;0.53;;
14247;SDS011;7208;49.826;6.004;2023-12-28T12:04:18;4.97;;;0.80;;
14247;SDS011;7208;49.826;6.004;2023-12-28T12:06:45;1.87;;;0.70;;
14247;SDS011;7208;49.826;6.004;2023-12-28T12:09:12;1.30;;;0.63;;
14247;SDS011;7208;49.826;6.004;2023-12-28T12:11:38;2.90;;;0.70;;
14247;SDS011;7208;49.826;6.004;2023-12-28T12:14:07;0.83;;;0.57;;
14247;SDS011;7208;49.826;6.004;2023-12-28T12:16:37;1.97;;;0.70;;
14247;SDS011;7208;49.826;6.004;2023-12-28T12:19:06;1.23;;;0.63;;
14247;SDS011;7208;49.826;6.004;2023-12-28T12:21:33;1.67;;;0.50;;
14247;SDS011;7208;49.826;6.004;2023-12-28T12:23:59;1.60;;;0.90;;
14247;SDS011;7208;49.826;6.004;2023-12-28T12:26:26;1.07;;;0.53;;
14247;SDS011;7208;49.826;6.004;2023-12-28T12:28:52;1.17;;;0.60;;
14247;SDS011;7208;49.826;6.004;2023-12-28T12:31:18;1.00;;;0.70;;
14247;SDS011;7208;49.826;6.004;2023-12-28T12:33:44;1.03;;;0.57;;
14247;SDS011;7208;49.826;6.004;2023-12-28T12:36:10;0.63;;;0.60;;
14247;SDS011;7208;49.826;6.004;2023-12-28T12:38:36;0.93;;;0.60;;
14247;SDS011;7208;49.826;6.004;2023-12-28T12:41:02;1.20;;;0.70;;
14247;SDS011;7208;49.826;6.004;2023-12-28T12:43:28;1.20;;;0.60;;
14247;SDS011;7208;49.826;6.004;2023-12-28T12:45:54;0.53;;;0.43;;
14247;SDS011;7208;49.826;6.004;2023-12-28T12:48:20;0.40;;;0.40;;
14247;SDS011;7208;49.826;6.004;2023-12-28T12:50:45;3.27;;;0.60;;
14247;SDS011;7208;49.826;6.004;2023-12-28T12:53:11;1.07;;;0.53;;
14247;SDS011;7208;49.826;6.004;2023-12-28T12:55:37;1.63;;;0.57;;
14247;SDS011;7208;49.826;6.004;2023-12-28T12:58:11;0.63;;;0.40;;
14247;SDS011;7208;49.826;6.004;2023-12-28T13:00:38;3.23;;;1.07;;
14247;SDS011;7208;49.826;6.004;2023-12-28T13:03:08;1.37;;;0.50;;
14247;SDS011;7208;49.826;6.004;2023-12-28T13:05:35;1.37;;;0.67;;
14247;SDS011;7208;49.826;6.004;2023-12-28T13:08:01;0.67;;;0.50;;
14247;SDS011;7208;49.826;6.004;2023-12-28T13:10:27;0.63;;;0.50;;
14247;SDS011;7208;49.826;6.004;2023-12-28T13:12:52;1.90;;;0.80;;
14247;SDS011;7208;49.826;6.004;2023-12-28T13:15:19;0.63;;;0.63;;
14247;SDS011;7208;49.826;6.004;2023-12-28T13:17:45;0.80;;;0.60;;
14247;SDS011;7208;49.826;6.004;2023-12-28T13:20:11;2.43;;;0.60;;
14247;SDS011;7208;49.826;6.004;2023-12-28T13:22:37;1.60;;;0.70;;
14247;SDS011;7208;49.826;6.004;2023-12-28T13:25:02;1.77;;;0.50;;
14247;SDS011;7208;49.826;6.004;2023-12-28T13:27:29;0.97;;;0.63;;
14247;SDS011;7208;49.826;6.004;2023-12-28T13:29:56;2.60;;;0.97;;
14247;SDS011;7208;49.826;6.004;2023-12-28T13:32:22;3.50;;;0.70;;
14247;SDS011;7208;49.826;6.004;2023-12-28T13:34:48;0.70;;;0.50;;
14247;SDS011;7208;49.826;6.004;2023-12-28T13:37:16;1.53;;;0.80;;
14247;SDS011;7208;49.826;6.004;2023-12-28T13:39:41;1.10;;;0.57;;
14247;SDS011;7208;49.826;6.004;2023-12-28T13:42:07;0.70;;;0.60;;
14247;SDS011;7208;49.826;6.004;2023-12-28T13:44:34;2.70;;;0.60;;
14247;SDS011;7208;49.826;6.004;2023-12-28T13:47:00;2.13;;;0.83;;
14247;SDS011;7208;49.826;6.004;2023-12-28T13:49:27;0.50;;;0.50;;
14247;SDS011;7208;49.826;6.004;2023-12-28T13:51:53;0.93;;;0.73;;
14247;SDS011;7208;49.826;6.004;2023-12-28T13:54:18;0.63;;;0.60;;
14247;SDS011;7208;49.826;6.004;2023-12-28T13:56:44;3.30;;;0.83;;
14247;SDS011;7208;49.826;6.004;2023-12-28T13:59:10;0.87;;;0.77;;
14247;SDS011;7208;49.826;6.004;2023-12-28T14:01:36;1.93;;;0.93;;
14247;SDS011;7208;49.826;6.004;2023-12-28T14:04:03;2.27;;;0.80;;
14247;SDS011;7208;49.826;6.004;2023-12-28T14:06:29;1.73;;;0.83;;
14247;SDS011;7208;49.826;6.004;2023-12-28T14:08:54;0.87;;;0.87;;
14247;SDS011;7208;49.826;6.004;2023-12-28T14:11:21;1.57;;;0.97;;
14247;SDS011;7208;49.826;6.004;2023-12-28T14:13:47;1.00;;;0.77;;
14247;SDS011;7208;49.826;6.004;2023-12-28T14:16:12;1.33;;;0.60;;
14247;SDS011;7208;49.826;6.004;2023-12-28T14:18:38;3.60;;;0.80;;
14247;SDS011;7208;49.826;6.004;2023-12-28T14:21:07;0.90;;;0.90;;
14247;SDS011;7208;49.826;6.004;2023-12-28T14:23:34;0.80;;;0.80;;
14247;SDS011;7208;49.826;6.004;2023-12-28T14:26:02;1.87;;;1.10;;
14247;SDS011;7208;49.826;6.004;2023-12-28T14:28:32;1.43;;;0.90;;
14247;SDS011;7208;49.826;6.004;2023-12-28T14:31:00;1.63;;;0.90;;
14247;SDS011;7208;49.826;6.004;2023-12-28T14:33:26;0.93;;;0.93;;
14247;SDS011;7208;49.826;6.004;2023-12-28T14:35:52;0.63;;;0.63;;
14247;SDS011;7208;49.826;6.004;2023-12-28T14:38:18;1.63;;;1.00;;
14247;SDS011;7208;49.826;6.004;2023-12-28T14:40:43;2.50;;;0.80;;
14247;SDS011;7208;49.826;6.004;2023-12-28T14:43:09;0.80;;;0.80;;
14247;SDS011;7208;49.826;6.004;2023-12-28T14:45:35;1.07;;;0.90;;
14247;SDS011;7208;49.826;6.004;2023-12-28T14:48:01;1.53;;;0.80;;
14247;SDS011;7208;49.826;6.004;2023-12-28T14:50:27;1.07;;;1.00;;
14247;SDS011;7208;49.826;6.004;2023-12-28T14:52:52;0.70;;;0.70;;
14247;SDS011;7208;49.826;6.004;2023-12-28T14:55:18;0.70;;;0.70;;
14247;SDS011;7208;49.826;6.004;2023-12-28T14:57:44;1.57;;;0.77;;
14247;SDS011;7208;49.826;6.004;2023-12-28T15:00:10;1.83;;;1.10;;
14247;SDS011;7208;49.826;6.004;2023-12-28T15:02:36;1.13;;;0.70;;